»·PEaware :: N814BG KSBA-KBUR

N814BG :: KSBA-KBUR

FLIGHT INFORMATION

Flight Status: Arrived
Operator: Privately registered:
United States
More flights under this callsign
Pilot: Robert K. (32084)
Aircraft: CIRRUS SR-22
(SR22)
More flights by this aircraft type
Origin: KSBA Santa Barbara Mun
United States
Destination: KBUR Bob Hope-Burbank
United States
More flights between these airports :: More routes between these airports
Route: DIRECT
File this flight plan on PilotEdge
Remarks:
Altitude:
(Current/Filed)
5,500ft
Speed:
(Current/Filed)
130kts
Departed: 19-Nov-20 04:22 PM
Arrived: 19-Nov-20 05:13 PM
Distance/Time
Traveled:
75nm/0:51
Distance/Time
To Go:
Arrived

Flight Plot

Page will automatically refresh every two minutes.


Map Options




Map Legend


Flown Route
Filed Route
Departure Airport
Arrival Airport
Navaid (VOR, NDB)
Fix

Horizontal Profiles

Position Reports

Time Latitude Longitude Heading Altitude Ground
Speed
19-Nov-20 15:57 34.424986 -119.837239 78 11ft 0kts
19-Nov-20 15:58 34.424986 -119.837240 78 17ft 0kts
19-Nov-20 15:59 34.424986 -119.837240 78 17ft 0kts
19-Nov-20 16:00 34.424986 -119.837240 78 17ft 0kts
19-Nov-20 16:01 34.424986 -119.837240 78 17ft 0kts
19-Nov-20 16:02 34.424986 -119.837240 78 17ft 0kts
19-Nov-20 16:03 34.424986 -119.837240 78 17ft 0kts
19-Nov-20 16:04 34.424986 -119.837240 78 17ft 0kts
19-Nov-20 16:05 34.424986 -119.837240 78 17ft 0kts
19-Nov-20 16:06 34.424986 -119.837240 78 17ft 0kts
19-Nov-20 16:07 34.424986 -119.837240 78 17ft 0kts
19-Nov-20 16:08 34.424986 -119.837240 78 17ft 0kts
19-Nov-20 16:09 34.424986 -119.837240 78 17ft 0kts
19-Nov-20 16:10 34.424986 -119.837240 78 17ft 0kts
19-Nov-20 16:11 34.424986 -119.837240 78 17ft 0kts
19-Nov-20 16:12 34.424986 -119.837240 78 17ft 0kts
19-Nov-20 16:13 34.424986 -119.837240 78 17ft 0kts
19-Nov-20 16:14 34.425232 -119.837889 343 18ft 9kts
19-Nov-20 16:15 34.426748 -119.836487 87 17ft 12kts
19-Nov-20 16:16 34.427067 -119.834624 354 15ft 0kts
19-Nov-20 16:17 34.427067 -119.834624 354 15ft 0kts
19-Nov-20 16:18 34.427067 -119.834624 354 15ft 0kts
19-Nov-20 16:19 34.427067 -119.834624 354 15ft 0kts
19-Nov-20 16:20 34.427796 -119.834819 311 16ft 10kts
19-Nov-20 16:21 34.426557 -119.864595 265 495ft 134kts
19-Nov-20 16:22 34.422590 -119.912190 266 1399ft 150kts
19-Nov-20 16:23 34.419519 -119.955777 267 1440ft 133kts
19-Nov-20 16:24 34.417047 -120.002378 267 1466ft 141kts
19-Nov-20 16:25 34.415727 -120.049859 271 1509ft 141kts
19-Nov-20 16:26 34.414410 -120.097648 269 1503ft 142kts
19-Nov-20 16:27 34.411304 -120.145408 265 1494ft 143kts
19-Nov-20 16:28 34.407069 -120.193080 264 1499ft 142kts
19-Nov-20 16:29 34.403105 -120.240590 270 1551ft 139kts
19-Nov-20 16:30 34.387433 -120.271639 160 2599ft 122kts
19-Nov-20 16:31 34.373888 -120.237149 96 3926ft 124kts
19-Nov-20 16:32 34.370734 -120.195561 89 5225ft 125kts
19-Nov-20 16:34 34.365611 -120.148064 98 5520ft 153kts
19-Nov-20 16:35 34.352803 -120.096961 100 5378ft 163kts
19-Nov-20 16:36 34.345256 -120.044365 96 5397ft 154kts
19-Nov-20 16:37 34.336902 -119.993707 97 5512ft 154kts
19-Nov-20 16:38 34.329974 -119.942188 93 5548ft 156kts
19-Nov-20 16:39 34.324987 -119.889864 92 5544ft 157kts
19-Nov-20 16:40 34.319898 -119.837670 93 5539ft 150kts
19-Nov-20 16:41 34.314970 -119.788829 92 5541ft 143kts
19-Nov-20 16:42 34.311485 -119.740977 90 5542ft 142kts
19-Nov-20 16:43 34.308108 -119.693096 91 5539ft 143kts
19-Nov-20 16:44 34.304733 -119.645215 91 5539ft 142kts
19-Nov-20 16:45 34.301483 -119.597388 91 5539ft 142kts
19-Nov-20 16:46 34.298411 -119.549718 91 5540ft 142kts
19-Nov-20 16:47 34.295422 -119.502078 91 5540ft 141kts
19-Nov-20 16:48 34.292562 -119.454651 91 5540ft 141kts
19-Nov-20 16:49 34.290394 -119.417208 91 5540ft 141kts
19-Nov-20 16:49 34.288145 -119.378722 90 5540ft 138kts
19-Nov-20 16:51 34.285058 -119.323702 90 5541ft 141kts
19-Nov-20 16:51 34.282916 -119.284249 91 5532ft 141kts
19-Nov-20 16:53 34.278612 -119.229213 93 5543ft 141kts
19-Nov-20 16:53 34.274600 -119.189612 95 5543ft 142kts
19-Nov-20 16:54 34.269381 -119.142104 95 5543ft 142kts
19-Nov-20 16:55 34.264447 -119.094826 95 5542ft 142kts
19-Nov-20 16:56 34.259534 -119.046961 95 5547ft 144kts
19-Nov-20 16:57 34.254502 -118.998626 95 5534ft 142kts
19-Nov-20 16:58 34.249716 -118.951104 93 5534ft 141kts
19-Nov-20 16:59 34.245438 -118.903604 93 5532ft 142kts
19-Nov-20 17:00 34.240888 -118.855745 94 5554ft 145kts
19-Nov-20 17:01 34.236115 -118.806844 93 5536ft 146kts
19-Nov-20 17:02 34.231253 -118.758060 94 5543ft 147kts
19-Nov-20 17:03 34.226435 -118.708474 94 5539ft 147kts
19-Nov-20 17:04 34.221123 -118.660696 89 5045ft 141kts
19-Nov-20 17:05 34.218863 -118.613546 88 4522ft 137kts
19-Nov-20 17:06 34.218229 -118.565973 89 3866ft 142kts
19-Nov-20 17:07 34.217949 -118.518942 89 3336ft 140kts
19-Nov-20 17:08 34.214683 -118.473051 100 2960ft 136kts
19-Nov-20 17:09 34.203350 -118.438284 110 2163ft 95kts
19-Nov-20 17:10 34.199180 -118.409051 91 1561ft 86kts
19-Nov-20 17:11 34.198186 -118.379894 87 1025ft 86kts
19-Nov-20 17:12 34.197791 -118.357621 90 714ft 11kts
19-Nov-20 17:13 34.197098 -118.355768 154 712ft 0kts
19-Nov-20 17:14 34.196838 -118.355250 93 710ft 0kts

Navigation Log

Ident Type
Flight plan parsing failed, navigation log unavailable